Station info - map view · info · telemetry · weather · raw · status · beacons · messages · bulletins · browse · moving · my account
Callsign, ship name or locator: Clear       
It is possible to search using wildcards (*?) after a prefix. Example: OH*
APRS station N3IVK-3 - show graphs
Map loading...
Comment: TM-D710G
Mic-E message: Off duty
Location: 39°56.26' N 80°10.17' W - locator EM99VW95PA - show map - static map
2.9 miles North bearing 10° from Waynesburg, Greene County, Pennsylvania, United States [?]
3.0 miles North bearing 352° from Morrisville, Greene County, Pennsylvania, United States
35.9 miles South bearing 195° from Pittsburgh, Allegheny County, Pennsylvania, United States
87.1 miles Southeast bearing 133° from Canton, Stark County, Ohio, United States
Last position: 2018-07-14 20:31:26 EDT (6d 1h26m ago)
2018-07-14 20:31:26 EDT local time at Waynesburg, United States [?]
Altitude: 1135 ft
Course: 169°
Speed: 62 MPH
Device: Kenwood: TM-D710 (rig)
Last path: N3IVK-3>SYUV2V via N3FB-2*,WIDE2-1,qAR,N3ENM-10 (good)
Positions stored: 1613
Other SSIDs: N3IVK N3IVK-10 N3IVK-2
Stations near current position of N3IVK-3 - show more
callsign distance last heard - EDT      callsign distance last heard - EDT
CW88390.7 miles 182°2018-07-20 21:54:18 KD8YNY-93.1 miles 153°2018-06-30 14:09:58
PBZSVRHrA9.8 miles 221°2018-07-15 14:50:55 WB3CKV B9.9 miles 64°2018-06-28 09:26:51
WB3CKV-B9.9 miles 64°2018-06-28 09:27:01 WV9D13.9 miles 132°2018-07-20 11:15:00
FW136415.4 miles 34°2018-07-20 21:52:00 EW773618.7 miles 39°2018-07-20 21:50:43
K3OD19.3 miles 53°2018-07-06 12:16:04 NI3L-120.5 miles 1°2018-07-07 14:07:32
N3FB-220.5 miles 357°2018-07-20 21:33:57 443.650PA20.5 miles 357°2018-07-20 21:33:47
KE0XS21.1 miles 45°2018-07-12 19:27:08 KC8TAI-221.2 miles 155°2018-07-19 01:28:18
N8URE-1022.0 miles 150°2018-07-20 21:55:01 N8URE22.0 miles 150°2018-06-22 17:48:44
KA3OAZ-222.1 miles 34°2018-07-20 21:52:55 WA3WZR-922.3 miles 44°2018-07-20 10:28:29
WA3WZR-122.4 miles 44°2018-07-20 21:53:20 WA3WZR22.4 miles 44°2018-07-20 21:53:28
Stations which heard N3IVK-3 directly on radio –
callsign pkts first heard - EDT last heard longest (tx => rx) longest at - EDT
W9LTA-10 18 2018-07-11 09:54:52 2018-07-14 08:26:20 EN53IC > EN54FA 64.2 miles 348° 2018-07-14 08:26:20
W9MKS-15 4 2018-07-14 10:47:30 2018-07-14 10:56:55 EN50LX > EN51ME 15.5 miles 15° 2018-07-14 10:56:55
N9QIP-10 4 2018-07-11 10:01:29 2018-07-11 10:10:05 EN53DI > EN53EK 6.3 miles 22° 2018-07-11 10:10:05
N9QIP-6 1 2018-07-11 10:13:22 2018-07-11 10:13:22 EN53DH > EN52AW 29.5 miles 203° 2018-07-11 10:13:22
WA9RES 6 2018-07-14 12:06:02 2018-07-14 12:43:15 EN50PG > EN50UF 21.3 miles 102° 2018-07-14 12:06:02
N9QIP-5 31 2018-07-02 11:38:29 2018-07-14 08:14:12 EN53FD > EN53HH 14.4 miles 27° 2018-07-11 12:09:01
N8GD-1 1 2018-07-14 19:39:43 2018-07-14 19:39:43 EN90OB > EN90PJ 23.5 miles 10° 2018-07-14 19:39:43
WT9M-5 32 2018-07-02 11:49:08 2018-07-14 08:35:40 EN53GN > EN53HB 33.5 miles 173° 2018-07-14 07:57:33
N9QIP-11 6 2018-07-14 08:44:14 2018-07-14 09:09:26 EN52MN > EN52LT 16.4 miles 347° 2018-07-14 09:09:26
N9AMN-2 4 2018-07-14 14:18:39 2018-07-14 14:31:19 EM69US > EM69WR 7.5 miles 120° 2018-07-14 14:18:39
K9APR-5 6 2018-07-14 15:40:45 2018-07-14 16:01:05 EM79HU > EM79LV 17.5 miles 82° 2018-07-14 15:40:45
KC6VVT 7 2018-07-14 10:32:32 2018-07-14 10:44:45 EN51LJ > EN51LF 11.0 miles 183° 2018-07-14 10:32:32
N9OQW 11 2018-07-14 12:18:57 2018-07-14 13:03:40 EN50SF > EM69AV 35.8 miles 129° 2018-07-14 12:18:57
WA8ZWJ-1 5 2018-07-14 16:15:03 2018-07-14 16:47:48 EM89BV > EM79TV 22.7 miles 273° 2018-07-14 16:47:48
W8BLV 4 2018-07-14 16:17:04 2018-07-14 16:23:44 EM79RU > EM79TM 25.2 miles 151° 2018-07-14 16:17:04
N9HWO 1 2018-07-14 11:41:51 2018-07-14 11:41:51 EN50LM > EN40XN 54.4 miles 273° 2018-07-14 11:41:51
N9PE-2 15 2018-07-14 11:10:28 2018-07-14 11:51:24 EN50LS > EN50ML 19.3 miles 167° 2018-07-14 11:10:28
K8GPS-10 2 2018-07-14 17:52:28 2018-07-14 18:27:03 EM89RW > EN80WH 33.3 miles 36° 2018-07-14 17:52:28
N9QIP-7 3 2018-07-14 08:38:19 2018-07-14 08:53:52 EN52LT > EN53OE 30.2 miles 24° 2018-07-14 08:53:52
K8GPS-4 15 2018-07-14 17:11:43 2018-07-14 18:05:59 EM89HW > EM89OU 31.3 miles 102° 2018-07-14 17:11:43
N9AMN-3 2 2018-07-14 14:40:47 2018-07-14 14:47:06 EM79BT > EM69XV 9.5 miles 308° 2018-07-14 14:47:06
W3EXW 1 2018-07-14 20:09:22 2018-07-14 20:09:22 EN90UD > EN90XL 25.8 miles 35° 2018-07-14 20:09:22
W8OG 7 2018-07-14 16:43:46 2018-07-14 17:01:44 EM89EW > EM89BW 12.8 miles 267° 2018-07-14 17:01:44
KI6SZ-2 10 2018-07-14 16:25:17 2018-07-14 16:55:54 EM89DV > EM79WT 19.5 miles 256° 2018-07-14 16:55:54
W9MQB 3 2018-07-14 08:30:27 2018-07-14 08:52:45 EN53IB > EN53OB 24.1 miles 89° 2018-07-14 08:30:27
N8WCT-1 2 2018-07-14 17:13:44 2018-07-14 17:42:23 EM89IX > EM89LX 16.4 miles 81° 2018-07-14 17:13:44
W9ICE-10 28 2018-07-14 13:47:38 2018-07-14 15:37:33 EM79GU > EM69VV 41.8 miles 274° 2018-07-14 15:37:33
W8VFR-2 2 2018-07-14 16:03:04 2018-07-14 16:06:32 EM79NU > EM79OU 4.4 miles 103° 2018-07-14 16:03:04
W8VFR-9 2 2018-07-14 16:13:03 2018-07-14 16:17:03 EM79PU > EM79QR 8.2 miles 158° 2018-07-14 16:13:03
W8VFR-10 2 2018-07-14 16:07:02 2018-07-14 16:09:02 EM79OT > EM79PS 5.0 miles 135° 2018-07-14 16:07:02
KB8RQB-1 1 2018-07-14 16:09:00 2018-07-14 16:09:00 EM79OT > EM79PT 3.4 miles 135° 2018-07-14 16:09:00
W8VFR-3 1 2018-07-14 16:15:04 2018-07-14 16:15:04 EM79QU > EM79TP 20.1 miles 134° 2018-07-14 16:15:04
W8VFR-4 2 2018-07-14 16:21:08 2018-07-14 16:23:07 EM79SU > EM79TR 8.2 miles 141° 2018-07-14 16:21:08
KB9TEN 34 2018-07-02 11:40:29 2018-07-14 08:26:19 EN53GI > EN53ID 15.4 miles 153° 2018-07-13 08:24:26
N8VKX-10 1 2018-07-14 16:19:05 2018-07-14 16:19:05 EM79RU > EM79RU 1.6 miles 333° 2018-07-14 16:19:05
KS9N-10 4 2018-07-14 15:48:56 2018-07-14 16:04:29 EM79JU > EM79NT 16.3 miles 98° 2018-07-14 15:48:56
W8VFR-11 2 2018-07-14 15:45:05 2018-07-14 15:56:59 EM79IU > EM79NO 26.9 miles 131° 2018-07-14 15:45:05
W9NTN-2 2 2018-07-14 10:13:53 2018-07-14 10:16:36 EN51LQ > EN51JP 10.2 miles 251° 2018-07-14 10:13:53
N3FB-2 13 2018-07-14 19:45:35 2018-07-14 20:31:26 EN90PB > EN90VF 29.5 miles 64° 2018-07-14 19:45:35
W9IKU-3 46 2018-07-02 11:21:51 2018-07-14 08:02:31 EN53GI > EN53GN 12.8 miles 356° 2018-07-02 13:14:31
KD8LXB-10 2 2018-07-14 16:19:03 2018-07-14 16:23:43 EM79SU > EM79QR 10.3 miles 232° 2018-07-14 16:23:43
KC8RFE-1 6 2018-07-14 12:20:56 2018-07-14 12:32:03 EN50TE > EN50UC 7.5 miles 135° 2018-07-14 12:20:56
N3ENM-10 1 2018-07-14 20:16:55 2018-07-14 20:16:55 EN90VD > EN90XJ 17.7 miles 26° 2018-07-14 20:16:55
WB9EOC-10 3 2018-07-14 13:45:35 2018-07-14 14:00:25 EM69PX > EM69NP 26.5 miles 202° 2018-07-14 13:45:35
N2RON 4 2018-07-14 09:15:47 2018-07-14 09:25:28 EN52MK > EN52LL 4.4 miles 316° 2018-07-14 09:25:28
K9ZQ-8 9 2018-07-14 10:12:01 2018-07-14 10:40:49 EN51LR > EN51JL 19.2 miles 214° 2018-07-14 10:12:01
W8VFR-8 1 2018-07-14 16:24:05 2018-07-14 16:24:05 EM79SU > EM79QW 11.1 miles 301° 2018-07-14 16:24:05
KD8QFM-3 1 2018-07-14 16:37:27 2018-07-14 16:37:27 EM79WU > EM79VV 3.9 miles 300° 2018-07-14 16:37:27
KC9SQR-15 21 2018-07-14 09:07:26 2018-07-14 09:59:17 EN51LW > EN52LG 23.6 miles 354° 2018-07-14 09:59:17
WI9ELK-12 1 2018-07-14 09:05:52 2018-07-14 09:05:52 EN52MO > EN52PP 14.3 miles 88° 2018-07-14 09:05:52
K8QIK-11 16 2018-07-14 17:21:43 2018-07-14 18:12:43 EM89KX > EM89RW 30.2 miles 96° 2018-07-14 17:21:43
N9NWI-10 3 2018-07-14 11:30:01 2018-07-14 12:01:15 EN50LR > EN50IA 52.5 miles 195° 2018-07-14 11:30:01
N9XKH-10 7 2018-07-14 08:38:18 2018-07-14 09:42:58 EN52KX > EN52IM 35.2 miles 195° 2018-07-14 08:38:18

Only position packets which were originated by the station are shown here. The range statistics show some extra long hops, because some digipeaters do not correctly add themselves to the digipeater path. Please check the raw packets.
About this site
This page shows real-time information collected from the Automatic Position Reporting System Internet network (APRS-IS). APRS is used by amateur (ham) radio operators to transmit real-time position information, weather data, telemetry and messages over the radio. A vehicle equipped with a GPS receiver, a VHF transmitter or HF transceiver and a small computer device called a tracker transmits it's location, speed and course in a small data packet, which is then received by a nearby iGate receiving site which forwards the packet on the Internet. Systems connected to the Internet can send information on the APRS-IS without a radio transmitter, or collect and display information transmitted anywhere in the world.
FAQ · Blog · Discussion group · Linking to aprs.fi · AIS sites · Service status · Database statistics · Advertising on aprs.fi · Technical details · API · Change log · Planned changes · Credits and thanks · Terms Of Service · iPhone/iPad APRS